sensor_id;sensor_type;location;lat;lon;timestamp;temperature;humidity
15879;DHT22;61999;51.514;14.614;2023-12-14T00:01:15;3.50;93.30
15879;DHT22;61999;51.514;14.614;2023-12-14T00:03:43;3.50;93.30
15879;DHT22;61999;51.514;14.614;2023-12-14T00:06:13;3.50;93.30
15879;DHT22;61999;51.514;14.614;2023-12-14T00:08:42;3.50;93.30
15879;DHT22;61999;51.514;14.614;2023-12-14T00:11:11;3.50;93.30
15879;DHT22;61999;51.514;14.614;2023-12-14T00:13:39;3.50;93.30
15879;DHT22;61999;51.514;14.614;2023-12-14T00:16:08;3.50;93.30
15879;DHT22;61999;51.514;14.614;2023-12-14T00:18:36;3.50;93.30
15879;DHT22;61999;51.514;14.614;2023-12-14T00:21:05;3.50;93.40
15879;DHT22;61999;51.514;14.614;2023-12-14T00:23:35;3.50;93.40
15879;DHT22;61999;51.514;14.614;2023-12-14T00:26:03;3.50;93.40
15879;DHT22;61999;51.514;14.614;2023-12-14T00:28:31;3.50;93.40
15879;DHT22;61999;51.514;14.614;2023-12-14T00:30:59;3.50;93.30
15879;DHT22;61999;51.514;14.614;2023-12-14T00:33:27;3.50;93.40
15879;DHT22;61999;51.514;14.614;2023-12-14T00:35:56;3.50;93.30
15879;DHT22;61999;51.514;14.614;2023-12-14T00:38:24;3.50;93.40
15879;DHT22;61999;51.514;14.614;2023-12-14T00:40:54;3.50;93.40
15879;DHT22;61999;51.514;14.614;2023-12-14T00:43:22;3.50;93.30
15879;DHT22;61999;51.514;14.614;2023-12-14T00:45:50;3.50;93.30
15879;DHT22;61999;51.514;14.614;2023-12-14T00:48:19;3.50;93.30
15879;DHT22;61999;51.514;14.614;2023-12-14T00:50:47;3.50;93.20
15879;DHT22;61999;51.514;14.614;2023-12-14T00:53:15;3.50;93.20
15879;DHT22;61999;51.514;14.614;2023-12-14T00:55:43;3.50;93.20
15879;DHT22;61999;51.514;14.614;2023-12-14T00:58:13;3.50;93.20
15879;DHT22;61999;51.514;14.614;2023-12-14T01:00:42;3.50;93.30
15879;DHT22;61999;51.514;14.614;2023-12-14T01:03:10;3.50;93.40
15879;DHT22;61999;51.514;14.614;2023-12-14T01:05:38;3.50;93.40
15879;DHT22;61999;51.514;14.614;2023-12-14T01:08:06;3.50;93.40
15879;DHT22;61999;51.514;14.614;2023-12-14T01:10:35;3.50;93.40
15879;DHT22;61999;51.514;14.614;2023-12-14T01:13:03;3.50;93.40
15879;DHT22;61999;51.514;14.614;2023-12-14T01:15:32;3.50;93.70
15879;DHT22;61999;51.514;14.614;2023-12-14T01:18:00;3.50;93.40
15879;DHT22;61999;51.514;14.614;2023-12-14T01:20:28;3.50;93.40
15879;DHT22;61999;51.514;14.614;2023-12-14T01:22:56;3.50;93.40
15879;DHT22;61999;51.514;14.614;2023-12-14T01:25:25;3.50;93.40
15879;DHT22;61999;51.514;14.614;2023-12-14T01:27:53;3.50;93.30
15879;DHT22;61999;51.514;14.614;2023-12-14T01:30:21;3.50;93.30
15879;DHT22;61999;51.514;14.614;2023-12-14T01:32:50;3.50;93.30
15879;DHT22;61999;51.514;14.614;2023-12-14T01:35:18;3.50;93.30
15879;DHT22;61999;51.514;14.614;2023-12-14T01:37:46;3.40;93.20
15879;DHT22;61999;51.514;14.614;2023-12-14T01:40:18;3.40;93.30
15879;DHT22;61999;51.514;14.614;2023-12-14T01:42:47;3.40;93.20
15879;DHT22;61999;51.514;14.614;2023-12-14T01:45:15;3.40;93.30
15879;DHT22;61999;51.514;14.614;2023-12-14T01:47:43;3.40;93.30
15879;DHT22;61999;51.514;14.614;2023-12-14T01:50:13;3.40;93.40
15879;DHT22;61999;51.514;14.614;2023-12-14T01:52:41;3.30;93.30
15879;DHT22;61999;51.514;14.614;2023-12-14T01:55:09;3.30;93.30
15879;DHT22;61999;51.514;14.614;2023-12-14T01:57:37;3.30;93.40
15879;DHT22;61999;51.514;14.614;2023-12-14T02:00:06;3.30;93.40
15879;DHT22;61999;51.514;14.614;2023-12-14T02:02:41;3.30;93.40
15879;DHT22;61999;51.514;14.614;2023-12-14T02:05:09;3.30;93.40
15879;DHT22;61999;51.514;14.614;2023-12-14T02:07:38;3.40;93.40
15879;DHT22;61999;51.514;14.614;2023-12-14T02:10:08;3.40;93.40
15879;DHT22;61999;51.514;14.614;2023-12-14T02:12:36;3.40;93.40
15879;DHT22;61999;51.514;14.614;2023-12-14T02:15:05;3.40;93.30
15879;DHT22;61999;51.514;14.614;2023-12-14T02:17:34;3.50;93.20
15879;DHT22;61999;51.514;14.614;2023-12-14T02:20:02;3.50;93.10
15879;DHT22;61999;51.514;14.614;2023-12-14T02:22:35;3.40;93.00
15879;DHT22;61999;51.514;14.614;2023-12-14T02:25:16;3.40;93.00
15879;DHT22;61999;51.514;14.614;2023-12-14T02:27:45;3.40;93.00
15879;DHT22;61999;51.514;14.614;2023-12-14T02:30:14;3.40;93.00
15879;DHT22;61999;51.514;14.614;2023-12-14T02:32:42;3.40;92.90
15879;DHT22;61999;51.514;14.614;2023-12-14T02:35:10;3.50;92.80
15879;DHT22;61999;51.514;14.614;2023-12-14T02:37:39;3.40;92.70
15879;DHT22;61999;51.514;14.614;2023-12-14T02:40:10;3.40;92.70
15879;DHT22;61999;51.514;14.614;2023-12-14T02:42:38;3.30;92.70
15879;DHT22;61999;51.514;14.614;2023-12-14T02:45:08;3.40;92.80
15879;DHT22;61999;51.514;14.614;2023-12-14T02:47:36;3.30;92.80
15879;DHT22;61999;51.514;14.614;2023-12-14T02:50:05;3.40;93.10
15879;DHT22;61999;51.514;14.614;2023-12-14T02:52:34;3.30;92.90
15879;DHT22;61999;51.514;14.614;2023-12-14T02:55:04;3.30;92.70
15879;DHT22;61999;51.514;14.614;2023-12-14T02:57:32;3.30;92.60
15879;DHT22;61999;51.514;14.614;2023-12-14T03:00:00;3.30;92.60
15879;DHT22;61999;51.514;14.614;2023-12-14T03:02:29;3.30;92.50
15879;DHT22;61999;51.514;14.614;2023-12-14T03:04:57;3.30;92.50
15879;DHT22;61999;51.514;14.614;2023-12-14T03:07:25;3.30;92.50
15879;DHT22;61999;51.514;14.614;2023-12-14T03:09:53;3.30;92.50
15879;DHT22;61999;51.514;14.614;2023-12-14T03:12:22;3.30;92.50
15879;DHT22;61999;51.514;14.614;2023-12-14T03:14:50;3.20;92.40
15879;DHT22;61999;51.514;14.614;2023-12-14T03:17:18;3.20;92.50
15879;DHT22;61999;51.514;14.614;2023-12-14T03:19:46;3.20;92.50
15879;DHT22;61999;51.514;14.614;2023-12-14T03:22:14;3.20;92.60
15879;DHT22;61999;51.514;14.614;2023-12-14T03:24:42;3.20;92.60
15879;DHT22;61999;51.514;14.614;2023-12-14T03:27:10;3.10;92.50
15879;DHT22;61999;51.514;14.614;2023-12-14T03:29:39;3.20;92.50
15879;DHT22;61999;51.514;14.614;2023-12-14T03:32:07;3.20;92.40
15879;DHT22;61999;51.514;14.614;2023-12-14T03:34:35;3.10;92.40
15879;DHT22;61999;51.514;14.614;2023-12-14T03:37:03;3.10;92.50
15879;DHT22;61999;51.514;14.614;2023-12-14T03:39:32;3.10;92.40
15879;DHT22;61999;51.514;14.614;2023-12-14T03:42:00;3.10;92.50
15879;DHT22;61999;51.514;14.614;2023-12-14T03:44:28;3.00;92.50
15879;DHT22;61999;51.514;14.614;2023-12-14T03:46:57;3.00;92.50
15879;DHT22;61999;51.514;14.614;2023-12-14T03:49:27;3.00;92.50
15879;DHT22;61999;51.514;14.614;2023-12-14T03:51:55;3.10;92.40
15879;DHT22;61999;51.514;14.614;2023-12-14T03:54:23;3.10;92.40
15879;DHT22;61999;51.514;14.614;2023-12-14T03:56:51;3.10;92.30
15879;DHT22;61999;51.514;14.614;2023-12-14T03:59:19;3.10;92.20
15879;DHT22;61999;51.514;14.614;2023-12-14T04:01:47;3.10;92.10
15879;DHT22;61999;51.514;14.614;2023-12-14T04:04:16;3.10;92.00
15879;DHT22;61999;51.514;14.614;2023-12-14T04:06:44;3.10;92.00
15879;DHT22;61999;51.514;14.614;2023-12-14T04:09:12;3.10;91.80
15879;DHT22;61999;51.514;14.614;2023-12-14T04:11:40;3.10;91.70
15879;DHT22;61999;51.514;14.614;2023-12-14T04:14:09;3.10;91.70
15879;DHT22;61999;51.514;14.614;2023-12-14T04:16:37;3.10;91.70
15879;DHT22;61999;51.514;14.614;2023-12-14T04:19:05;3.10;91.80
15879;DHT22;61999;51.514;14.614;2023-12-14T04:21:38;3.00;91.70
15879;DHT22;61999;51.514;14.614;2023-12-14T04:24:06;3.00;91.80
15879;DHT22;61999;51.514;14.614;2023-12-14T04:26:35;2.90;91.80
15879;DHT22;61999;51.514;14.614;2023-12-14T04:29:04;2.90;91.80
15879;DHT22;61999;51.514;14.614;2023-12-14T04:31:32;2.90;91.90
15879;DHT22;61999;51.514;14.614;2023-12-14T04:34:01;2.90;91.80
15879;DHT22;61999;51.514;14.614;2023-12-14T04:36:29;2.90;91.80
15879;DHT22;61999;51.514;14.614;2023-12-14T04:38:58;2.90;91.80
15879;DHT22;61999;51.514;14.614;2023-12-14T04:41:26;2.90;91.80
15879;DHT22;61999;51.514;14.614;2023-12-14T04:43:54;2.90;91.70
15879;DHT22;61999;51.514;14.614;2023-12-14T04:46:22;2.90;91.80
15879;DHT22;61999;51.514;14.614;2023-12-14T04:48:50;2.90;91.80
15879;DHT22;61999;51.514;14.614;2023-12-14T04:51:18;2.90;91.80
15879;DHT22;61999;51.514;14.614;2023-12-14T04:53:46;2.80;91.70
15879;DHT22;61999;51.514;14.614;2023-12-14T04:56:15;2.80;91.90
15879;DHT22;61999;51.514;14.614;2023-12-14T04:58:43;2.80;91.90
15879;DHT22;61999;51.514;14.614;2023-12-14T05:01:12;2.70;91.90
15879;DHT22;61999;51.514;14.614;2023-12-14T05:03:41;2.70;91.90
15879;DHT22;61999;51.514;14.614;2023-12-14T05:06:09;2.70;91.90
15879;DHT22;61999;51.514;14.614;2023-12-14T05:08:37;2.70;92.00
15879;DHT22;61999;51.514;14.614;2023-12-14T05:11:05;2.70;92.00
15879;DHT22;61999;51.514;14.614;2023-12-14T05:13:35;2.60;92.00
15879;DHT22;61999;51.514;14.614;2023-12-14T05:16:03;2.60;92.20
15879;DHT22;61999;51.514;14.614;2023-12-14T05:18:31;2.60;92.20
15879;DHT22;61999;51.514;14.614;2023-12-14T05:20:59;2.70;92.20
15879;DHT22;61999;51.514;14.614;2023-12-14T05:23:26;2.70;92.10
15879;DHT22;61999;51.514;14.614;2023-12-14T05:25:54;2.70;92.10
15879;DHT22;61999;51.514;14.614;2023-12-14T05:28:22;2.70;92.30
15879;DHT22;61999;51.514;14.614;2023-12-14T05:30:52;2.70;91.90
15879;DHT22;61999;51.514;14.614;2023-12-14T05:33:20;2.70;92.10
15879;DHT22;61999;51.514;14.614;2023-12-14T05:35:48;2.70;92.00
15879;DHT22;61999;51.514;14.614;2023-12-14T05:38:16;2.70;91.90
15879;DHT22;61999;51.514;14.614;2023-12-14T05:40:44;2.70;91.90
15879;DHT22;61999;51.514;14.614;2023-12-14T05:43:12;2.70;91.90
15879;DHT22;61999;51.514;14.614;2023-12-14T05:45:40;2.80;91.90
15879;DHT22;61999;51.514;14.614;2023-12-14T05:48:09;2.80;91.90
15879;DHT22;61999;51.514;14.614;2023-12-14T05:50:37;2.70;91.90
15879;DHT22;61999;51.514;14.614;2023-12-14T05:53:05;2.70;92.00
15879;DHT22;61999;51.514;14.614;2023-12-14T05:55:33;2.70;92.00
15879;DHT22;61999;51.514;14.614;2023-12-14T05:58:01;2.70;92.10
15879;DHT22;61999;51.514;14.614;2023-12-14T06:00:30;2.70;92.10
15879;DHT22;61999;51.514;14.614;2023-12-14T06:02:58;2.70;92.00
15879;DHT22;61999;51.514;14.614;2023-12-14T06:05:27;2.70;92.10
15879;DHT22;61999;51.514;14.614;2023-12-14T06:07:55;2.70;92.00
15879;DHT22;61999;51.514;14.614;2023-12-14T06:10:22;2.70;92.00
15879;DHT22;61999;51.514;14.614;2023-12-14T06:12:50;2.70;92.00
15879;DHT22;61999;51.514;14.614;2023-12-14T06:15:18;2.60;92.40
15879;DHT22;61999;51.514;14.614;2023-12-14T06:17:46;2.60;92.10
15879;DHT22;61999;51.514;14.614;2023-12-14T06:20:14;2.50;92.20
15879;DHT22;61999;51.514;14.614;2023-12-14T06:22:44;2.60;92.20
15879;DHT22;61999;51.514;14.614;2023-12-14T06:25:12;2.50;92.20
15879;DHT22;61999;51.514;14.614;2023-12-14T06:27:41;2.60;92.30
15879;DHT22;61999;51.514;14.614;2023-12-14T06:30:10;2.60;92.10
15879;DHT22;61999;51.514;14.614;2023-12-14T06:32:39;2.60;92.10
15879;DHT22;61999;51.514;14.614;2023-12-14T06:35:07;2.60;92.10
15879;DHT22;61999;51.514;14.614;2023-12-14T06:37:35;2.60;92.40
15879;DHT22;61999;51.514;14.614;2023-12-14T06:40:06;2.60;92.10
15879;DHT22;61999;51.514;14.614;2023-12-14T06:42:35;2.70;92.00
15879;DHT22;61999;51.514;14.614;2023-12-14T06:45:04;2.70;92.00
15879;DHT22;61999;51.514;14.614;2023-12-14T06:47:33;2.60;92.10
15879;DHT22;61999;51.514;14.614;2023-12-14T06:50:01;2.60;92.00
15879;DHT22;61999;51.514;14.614;2023-12-14T06:52:29;2.60;92.00
15879;DHT22;61999;51.514;14.614;2023-12-14T06:54:58;2.60;92.10
15879;DHT22;61999;51.514;14.614;2023-12-14T06:57:28;2.60;92.10
15879;DHT22;61999;51.514;14.614;2023-12-14T06:59:56;2.60;92.10
15879;DHT22;61999;51.514;14.614;2023-12-14T07:02:24;2.60;92.10
15879;DHT22;61999;51.514;14.614;2023-12-14T07:04:52;2.50;92.00
15879;DHT22;61999;51.514;14.614;2023-12-14T07:07:20;2.50;92.10
15879;DHT22;61999;51.514;14.614;2023-12-14T07:09:48;2.40;92.20
15879;DHT22;61999;51.514;14.614;2023-12-14T07:12:16;2.40;92.40
15879;DHT22;61999;51.514;14.614;2023-12-14T07:14:45;2.40;92.40
15879;DHT22;61999;51.514;14.614;2023-12-14T07:17:13;2.40;92.40
15879;DHT22;61999;51.514;14.614;2023-12-14T07:19:41;2.40;92.40
15879;DHT22;61999;51.514;14.614;2023-12-14T07:22:09;2.40;92.50
15879;DHT22;61999;51.514;14.614;2023-12-14T07:24:36;2.40;92.40
15879;DHT22;61999;51.514;14.614;2023-12-14T07:27:06;2.40;92.50
15879;DHT22;61999;51.514;14.614;2023-12-14T07:29:34;2.40;92.50
15879;DHT22;61999;51.514;14.614;2023-12-14T07:32:03;2.40;92.40
15879;DHT22;61999;51.514;14.614;2023-12-14T07:34:32;2.40;92.50
15879;DHT22;61999;51.514;14.614;2023-12-14T07:37:00;2.40;92.50
15879;DHT22;61999;51.514;14.614;2023-12-14T07:39:28;2.40;92.50
15879;DHT22;61999;51.514;14.614;2023-12-14T07:41:56;2.40;92.50
15879;DHT22;61999;51.514;14.614;2023-12-14T07:44:24;2.40;92.60
15879;DHT22;61999;51.514;14.614;2023-12-14T07:46:52;2.40;92.70
15879;DHT22;61999;51.514;14.614;2023-12-14T07:49:22;2.40;92.70
15879;DHT22;61999;51.514;14.614;2023-12-14T07:51:50;2.40;92.60
15879;DHT22;61999;51.514;14.614;2023-12-14T07:54:19;2.40;92.50
15879;DHT22;61999;51.514;14.614;2023-12-14T07:56:48;2.50;92.40
15879;DHT22;61999;51.514;14.614;2023-12-14T07:59:15;2.50;92.30
15879;DHT22;61999;51.514;14.614;2023-12-14T08:01:43;2.50;92.40
15879;DHT22;61999;51.514;14.614;2023-12-14T08:04:11;2.50;92.30
15879;DHT22;61999;51.514;14.614;2023-12-14T08:06:41;2.50;92.30
15879;DHT22;61999;51.514;14.614;2023-12-14T08:09:09;2.50;92.30
15879;DHT22;61999;51.514;14.614;2023-12-14T08:11:37;2.50;92.20
15879;DHT22;61999;51.514;14.614;2023-12-14T08:14:05;2.50;92.10
15879;DHT22;61999;51.514;14.614;2023-12-14T08:16:33;2.50;92.10
15879;DHT22;61999;51.514;14.614;2023-12-14T08:19:01;2.40;92.10
15879;DHT22;61999;51.514;14.614;2023-12-14T08:21:29;2.40;92.20
15879;DHT22;61999;51.514;14.614;2023-12-14T08:23:58;2.40;92.10
15879;DHT22;61999;51.514;14.614;2023-12-14T08:26:26;2.40;92.10
15879;DHT22;61999;51.514;14.614;2023-12-14T08:28:54;2.40;92.20
15879;DHT22;61999;51.514;14.614;2023-12-14T08:31:22;2.40;92.20
15879;DHT22;61999;51.514;14.614;2023-12-14T08:33:51;2.40;92.10
15879;DHT22;61999;51.514;14.614;2023-12-14T08:36:19;2.40;92.00
15879;DHT22;61999;51.514;14.614;2023-12-14T08:38:47;2.40;92.00
15879;DHT22;61999;51.514;14.614;2023-12-14T08:41:17;2.40;92.10
15879;DHT22;61999;51.514;14.614;2023-12-14T08:43:45;2.40;92.10
15879;DHT22;61999;51.514;14.614;2023-12-14T08:46:13;2.40;92.10
15879;DHT22;61999;51.514;14.614;2023-12-14T08:48:41;2.30;92.10
15879;DHT22;61999;51.514;14.614;2023-12-14T08:51:09;2.30;92.10
15879;DHT22;61999;51.514;14.614;2023-12-14T08:53:37;2.30;92.10
15879;DHT22;61999;51.514;14.614;2023-12-14T08:56:06;2.30;92.20
15879;DHT22;61999;51.514;14.614;2023-12-14T08:58:37;2.20;92.20
15879;DHT22;61999;51.514;14.614;2023-12-14T09:01:06;2.30;92.30
15879;DHT22;61999;51.514;14.614;2023-12-14T09:03:34;2.40;92.00
15879;DHT22;61999;51.514;14.614;2023-12-14T09:06:02;2.40;91.90
15879;DHT22;61999;51.514;14.614;2023-12-14T09:08:32;2.40;91.80
15879;DHT22;61999;51.514;14.614;2023-12-14T09:11:00;2.40;91.70
15879;DHT22;61999;51.514;14.614;2023-12-14T09:13:29;2.40;91.70
15879;DHT22;61999;51.514;14.614;2023-12-14T09:15:58;2.30;91.70
15879;DHT22;61999;51.514;14.614;2023-12-14T09:18:26;2.30;91.80
15879;DHT22;61999;51.514;14.614;2023-12-14T09:20:54;2.30;91.80
15879;DHT22;61999;51.514;14.614;2023-12-14T09:23:22;2.30;91.70
15879;DHT22;61999;51.514;14.614;2023-12-14T09:26:00;2.20;91.80
15879;DHT22;61999;51.514;14.614;2023-12-14T09:28:28;2.30;91.80
15879;DHT22;61999;51.514;14.614;2023-12-14T09:30:57;2.30;91.80
15879;DHT22;61999;51.514;14.614;2023-12-14T09:33:26;2.40;91.40
15879;DHT22;61999;51.514;14.614;2023-12-14T09:35:54;2.40;91.30
15879;DHT22;61999;51.514;14.614;2023-12-14T09:38:22;2.40;91.30
15879;DHT22;61999;51.514;14.614;2023-12-14T09:40:51;2.30;91.30
15879;DHT22;61999;51.514;14.614;2023-12-14T09:43:19;2.30;91.40
15879;DHT22;61999;51.514;14.614;2023-12-14T09:45:49;2.20;91.50
15879;DHT22;61999;51.514;14.614;2023-12-14T09:48:19;2.20;91.60
15879;DHT22;61999;51.514;14.614;2023-12-14T09:50:49;2.20;91.70
15879;DHT22;61999;51.514;14.614;2023-12-14T09:53:18;2.20;91.70
15879;DHT22;61999;51.514;14.614;2023-12-14T09:55:46;2.20;91.70
15879;DHT22;61999;51.514;14.614;2023-12-14T09:58:14;2.20;91.70
15879;DHT22;61999;51.514;14.614;2023-12-14T10:00:42;2.20;91.70
15879;DHT22;61999;51.514;14.614;2023-12-14T10:03:25;2.20;91.60
15879;DHT22;61999;51.514;14.614;2023-12-14T10:05:56;2.20;91.60
15879;DHT22;61999;51.514;14.614;2023-12-14T10:08:26;2.20;91.70
15879;DHT22;61999;51.514;14.614;2023-12-14T10:10:54;2.20;92.10
15879;DHT22;61999;51.514;14.614;2023-12-14T10:13:36;2.20;91.70
15879;DHT22;61999;51.514;14.614;2023-12-14T10:16:05;2.20;91.70
15879;DHT22;61999;51.514;14.614;2023-12-14T10:18:35;2.20;91.70
15879;DHT22;61999;51.514;14.614;2023-12-14T10:21:05;2.20;91.70
15879;DHT22;61999;51.514;14.614;2023-12-14T10:23:34;2.20;91.70
15879;DHT22;61999;51.514;14.614;2023-12-14T10:26:04;2.20;91.80
15879;DHT22;61999;51.514;14.614;2023-12-14T10:28:33;2.30;91.80
15879;DHT22;61999;51.514;14.614;2023-12-14T10:31:02;2.30;91.70
15879;DHT22;61999;51.514;14.614;2023-12-14T10:33:31;2.30;91.70
15879;DHT22;61999;51.514;14.614;2023-12-14T10:36:01;2.30;91.50
15879;DHT22;61999;51.514;14.614;2023-12-14T10:38:32;2.40;91.50
15879;DHT22;61999;51.514;14.614;2023-12-14T10:41:08;2.40;91.30
15879;DHT22;61999;51.514;14.614;2023-12-14T10:43:37;2.40;91.10
15879;DHT22;61999;51.514;14.614;2023-12-14T10:46:09;2.40;91.10
15879;DHT22;61999;51.514;14.614;2023-12-14T10:48:39;2.30;91.10
15879;DHT22;61999;51.514;14.614;2023-12-14T10:51:15;2.40;90.90
15879;DHT22;61999;51.514;14.614;2023-12-14T10:53:46;2.30;90.90
15879;DHT22;61999;51.514;14.614;2023-12-14T10:56:17;2.20;90.90
15879;DHT22;61999;51.514;14.614;2023-12-14T10:58:46;2.20;91.00
15879;DHT22;61999;51.514;14.614;2023-12-14T11:01:15;2.20;91.10
15879;DHT22;61999;51.514;14.614;2023-12-14T11:03:44;2.20;91.10
15879;DHT22;61999;51.514;14.614;2023-12-14T11:06:28;2.20;91.10
15879;DHT22;61999;51.514;14.614;2023-12-14T11:08:59;2.20;91.10
15879;DHT22;61999;51.514;14.614;2023-12-14T11:11:40;2.10;91.10
15879;DHT22;61999;51.514;14.614;2023-12-14T11:14:11;2.20;91.10
15879;DHT22;61999;51.514;14.614;2023-12-14T11:16:41;2.20;91.00
15879;DHT22;61999;51.514;14.614;2023-12-14T11:19:29;2.30;90.90
15879;DHT22;61999;51.514;14.614;2023-12-14T11:22:13;2.20;90.90
15879;DHT22;61999;51.514;14.614;2023-12-14T11:24:52;2.30;90.70
15879;DHT22;61999;51.514;14.614;2023-12-14T11:27:26;2.20;90.70
15879;DHT22;61999;51.514;14.614;2023-12-14T11:29:56;2.20;90.70
15879;DHT22;61999;51.514;14.614;2023-12-14T11:32:26;2.20;90.70
15879;DHT22;61999;51.514;14.614;2023-12-14T11:34:55;2.20;90.80
15879;DHT22;61999;51.514;14.614;2023-12-14T11:37:25;2.20;90.80
15879;DHT22;61999;51.514;14.614;2023-12-14T11:39:54;2.20;90.80
15879;DHT22;61999;51.514;14.614;2023-12-14T11:42:22;2.20;90.80
15879;DHT22;61999;51.514;14.614;2023-12-14T11:44:52;2.20;91.10
15879;DHT22;61999;51.514;14.614;2023-12-14T11:47:20;2.20;90.80
15879;DHT22;61999;51.514;14.614;2023-12-14T11:49:47;2.10;90.80
15879;DHT22;61999;51.514;14.614;2023-12-14T11:52:17;2.10;91.00
15879;DHT22;61999;51.514;14.614;2023-12-14T11:54:47;2.10;91.00
15879;DHT22;61999;51.514;14.614;2023-12-14T11:57:16;2.10;91.10
15879;DHT22;61999;51.514;14.614;2023-12-14T11:59:45;2.10;91.00
15879;DHT22;61999;51.514;14.614;2023-12-14T12:02:23;2.20;91.10
15879;DHT22;61999;51.514;14.614;2023-12-14T12:04:53;2.20;91.10
15879;DHT22;61999;51.514;14.614;2023-12-14T12:07:22;2.20;91.10
15879;DHT22;61999;51.514;14.614;2023-12-14T12:09:51;2.20;91.10
15879;DHT22;61999;51.514;14.614;2023-12-14T12:12:21;2.20;91.20
15879;DHT22;61999;51.514;14.614;2023-12-14T12:14:49;2.20;91.20
15879;DHT22;61999;51.514;14.614;2023-12-14T12:17:19;2.20;91.20
15879;DHT22;61999;51.514;14.614;2023-12-14T12:19:47;2.20;91.10
15879;DHT22;61999;51.514;14.614;2023-12-14T12:22:15;2.20;91.10
15879;DHT22;61999;51.514;14.614;2023-12-14T12:24:43;2.30;91.10
15879;DHT22;61999;51.514;14.614;2023-12-14T12:27:13;2.20;91.10
15879;DHT22;61999;51.514;14.614;2023-12-14T12:29:41;2.30;91.00
15879;DHT22;61999;51.514;14.614;2023-12-14T12:32:09;2.30;91.00
15879;DHT22;61999;51.514;14.614;2023-12-14T12:34:37;2.30;91.30
15879;DHT22;61999;51.514;14.614;2023-12-14T12:37:05;2.30;91.00
15879;DHT22;61999;51.514;14.614;2023-12-14T12:39:33;2.30;90.90
15879;DHT22;61999;51.514;14.614;2023-12-14T12:42:01;2.30;90.90
15879;DHT22;61999;51.514;14.614;2023-12-14T12:44:30;2.30;90.70
15879;DHT22;61999;51.514;14.614;2023-12-14T12:46:58;2.30;90.70
15879;DHT22;61999;51.514;14.614;2023-12-14T12:49:27;2.30;91.00
15879;DHT22;61999;51.514;14.614;2023-12-14T12:51:55;2.30;90.50
15879;DHT22;61999;51.514;14.614;2023-12-14T12:54:23;2.40;90.30
15879;DHT22;61999;51.514;14.614;2023-12-14T12:56:51;2.40;90.20
15879;DHT22;61999;51.514;14.614;2023-12-14T12:59:19;2.40;90.10
15879;DHT22;61999;51.514;14.614;2023-12-14T13:01:49;2.30;90.00
15879;DHT22;61999;51.514;14.614;2023-12-14T13:04:21;2.30;90.00
15879;DHT22;61999;51.514;14.614;2023-12-14T13:06:49;2.30;89.80
15879;DHT22;61999;51.514;14.614;2023-12-14T13:09:18;2.20;89.90
15879;DHT22;61999;51.514;14.614;2023-12-14T13:11:47;2.20;89.70
15879;DHT22;61999;51.514;14.614;2023-12-14T13:14:15;2.20;89.60
15879;DHT22;61999;51.514;14.614;2023-12-14T13:16:43;2.20;89.60
15879;DHT22;61999;51.514;14.614;2023-12-14T13:19:13;2.20;89.60
15879;DHT22;61999;51.514;14.614;2023-12-14T13:21:41;2.10;89.50
15879;DHT22;61999;51.514;14.614;2023-12-14T13:24:09;2.10;89.70
15879;DHT22;61999;51.514;14.614;2023-12-14T13:26:37;2.00;89.90
15879;DHT22;61999;51.514;14.614;2023-12-14T13:29:06;2.00;90.00
15879;DHT22;61999;51.514;14.614;2023-12-14T13:31:34;1.90;90.00
15879;DHT22;61999;51.514;14.614;2023-12-14T13:34:02;1.90;90.10
15879;DHT22;61999;51.514;14.614;2023-12-14T13:36:32;1.90;90.10
15879;DHT22;61999;51.514;14.614;2023-12-14T13:39:01;1.90;90.00
15879;DHT22;61999;51.514;14.614;2023-12-14T13:41:30;1.90;90.00
15879;DHT22;61999;51.514;14.614;2023-12-14T13:44:05;1.90;90.10
15879;DHT22;61999;51.514;14.614;2023-12-14T13:46:33;1.90;90.00
15879;DHT22;61999;51.514;14.614;2023-12-14T13:49:02;2.00;89.90
15879;DHT22;61999;51.514;14.614;2023-12-14T13:51:42;2.00;89.90
15879;DHT22;61999;51.514;14.614;2023-12-14T13:54:10;2.00;89.70
15879;DHT22;61999;51.514;14.614;2023-12-14T13:56:39;2.00;89.60
15879;DHT22;61999;51.514;14.614;2023-12-14T13:59:07;2.00;89.70
15879;DHT22;61999;51.514;14.614;2023-12-14T14:01:35;2.00;89.50
15879;DHT22;61999;51.514;14.614;2023-12-14T14:04:04;1.90;89.70
15879;DHT22;61999;51.514;14.614;2023-12-14T14:06:32;1.90;89.60
15879;DHT22;61999;51.514;14.614;2023-12-14T14:09:02;2.00;89.20
15879;DHT22;61999;51.514;14.614;2023-12-14T14:11:31;2.10;88.50
15879;DHT22;61999;51.514;14.614;2023-12-14T14:14:01;2.00;88.50
15879;DHT22;61999;51.514;14.614;2023-12-14T14:16:30;2.00;88.40
15879;DHT22;61999;51.514;14.614;2023-12-14T14:18:59;1.90;88.70
15879;DHT22;61999;51.514;14.614;2023-12-14T14:21:27;1.90;88.90
15879;DHT22;61999;51.514;14.614;2023-12-14T14:23:55;1.80;89.10
15879;DHT22;61999;51.514;14.614;2023-12-14T14:26:25;1.80;89.20
15879;DHT22;61999;51.514;14.614;2023-12-14T14:28:53;1.80;89.40
15879;DHT22;61999;51.514;14.614;2023-12-14T14:31:26;1.80;89.40
15879;DHT22;61999;51.514;14.614;2023-12-14T14:33:56;1.80;89.20
15879;DHT22;61999;51.514;14.614;2023-12-14T14:36:24;1.70;89.40
15879;DHT22;61999;51.514;14.614;2023-12-14T14:38:52;1.60;89.70
15879;DHT22;61999;51.514;14.614;2023-12-14T14:41:24;1.60;89.80
15879;DHT22;61999;51.514;14.614;2023-12-14T14:43:52;1.60;89.80
15879;DHT22;61999;51.514;14.614;2023-12-14T14:46:20;1.70;89.30
15879;DHT22;61999;51.514;14.614;2023-12-14T14:48:48;1.70;89.00
15879;DHT22;61999;51.514;14.614;2023-12-14T14:51:17;1.70;89.00
15879;DHT22;61999;51.514;14.614;2023-12-14T14:53:45;1.60;89.20
15879;DHT22;61999;51.514;14.614;2023-12-14T14:56:14;1.70;89.10
15879;DHT22;61999;51.514;14.614;2023-12-14T14:58:43;1.70;89.10
15879;DHT22;61999;51.514;14.614;2023-12-14T15:01:30;1.60;89.30
15879;DHT22;61999;51.514;14.614;2023-12-14T15:04:51;1.60;89.60
15879;DHT22;61999;51.514;14.614;2023-12-14T15:07:23;1.60;89.20
15879;DHT22;61999;51.514;14.614;2023-12-14T15:09:51;1.60;89.20
15879;DHT22;61999;51.514;14.614;2023-12-14T15:12:19;1.60;89.20
15879;DHT22;61999;51.514;14.614;2023-12-14T15:14:49;1.60;89.20
15879;DHT22;61999;51.514;14.614;2023-12-14T15:17:17;1.50;89.30
15879;DHT22;61999;51.514;14.614;2023-12-14T15:19:46;1.40;89.50
15879;DHT22;61999;51.514;14.614;2023-12-14T15:22:14;1.40;89.70
15879;DHT22;61999;51.514;14.614;2023-12-14T15:24:42;1.40;89.80
15879;DHT22;61999;51.514;14.614;2023-12-14T15:27:10;1.30;89.90
15879;DHT22;61999;51.514;14.614;2023-12-14T15:29:40;1.30;89.80
15879;DHT22;61999;51.514;14.614;2023-12-14T15:32:10;1.40;89.70
15879;DHT22;61999;51.514;14.614;2023-12-14T15:34:39;1.40;89.50
15879;DHT22;61999;51.514;14.614;2023-12-14T15:37:07;1.40;89.40
15879;DHT22;61999;51.514;14.614;2023-12-14T15:39:35;1.40;89.20
15879;DHT22;61999;51.514;14.614;2023-12-14T15:42:03;1.40;89.10